Time;durP1;ratioP1;P1;durP2;ratioP2;P2;SDS_P1;SDS_P2;PMS_P1;PMS_P2;Temp;Humidity;BMP_temperature;BMP_pressure;BME280_temperature;BME280_humidity;BME280_pressure;Samples;Min_cycle;Max_cycle;Signal;HPM_P1;HPM_P2
2022/03/08 00:00:56;;;;;;;8.50;7.60;;;;;20.20;101308.00;;;;2058863;28;20250;-66
2022/03/08 00:01:56;;;;;;;7.30;6.60;;;;;20.20;101308.00;;;;2059710;28;20222;-66
2022/03/08 00:02:57;;;;;;;8.90;8.00;;;;;20.20;101311.00;;;;2052718;28;20633;-65
2022/03/08 00:03:57;;;;;;;9.47;7.60;;;;;20.20;101308.00;;;;2060995;28;20215;-66
2022/03/08 00:04:58;;;;;;;7.30;6.50;;;;;20.20;101314.00;;;;2058784;28;20203;-65
2022/03/08 00:05:58;;;;;;;7.57;6.87;;;;;20.20;101315.00;;;;2059810;28;20221;-65
2022/03/08 00:06:58;;;;;;;8.37;6.60;;;;;20.20;101313.00;;;;2059504;28;20219;-65
2022/03/08 00:07:59;;;;;;;7.50;6.80;;;;;20.10;101317.00;;;;2059001;28;20483;-64
2022/03/08 00:08:59;;;;;;;7.70;6.80;;;;;20.20;101317.00;;;;2057864;28;20215;-64
2022/03/08 00:10:00;;;;;;;7.20;6.50;;;;;20.10;101316.00;;;;2059408;28;20223;-65
2022/03/08 00:11:02;;;;;;;8.73;7.83;;;;;20.10;101318.00;;;;2061083;28;20212;-65
2022/03/08 00:12:03;;;;;;;10.23;6.60;;;;;20.10;101315.00;;;;2061436;28;20585;-66
2022/03/08 00:13:03;;;;;;;9.63;7.17;;;;;20.10;101317.00;;;;2061008;28;20214;-66
2022/03/08 00:14:04;;;;;;;9.10;7.70;;;;;20.10;101321.00;;;;2058273;28;20709;-66
2022/03/08 00:15:11;;;;;;;7.40;6.23;;;;;20.10;101327.00;;;;2060114;28;20704;-65
2022/03/08 00:16:12;;;;;;;7.30;6.50;;;;;20.10;101326.00;;;;2059827;28;20269;-66
2022/03/08 00:17:12;;;;;;;7.03;6.13;;;;;20.10;101337.00;;;;2060188;28;20204;-66
2022/03/08 00:18:12;;;;;;;7.43;6.63;;;;;20.10;101324.00;;;;2060845;28;20246;-65
2022/03/08 00:19:13;;;;;;;7.03;6.40;;;;;20.10;101326.00;;;;2058344;28;20207;-66
2022/03/08 00:20:13;;;;;;;7.00;6.30;;;;;20.10;101330.00;;;;2060702;28;20582;-65
2022/03/08 00:21:14;;;;;;;8.00;7.20;;;;;20.00;101326.00;;;;2060717;28;20210;-66
2022/03/08 00:22:14;;;;;;;7.00;6.00;;;;;20.00;101320.00;;;;2059651;28;20286;-66
2022/03/08 00:23:15;;;;;;;6.77;6.07;;;;;20.10;101319.00;;;;2059352;28;20290;-66
2022/03/08 00:24:16;;;;;;;6.00;5.50;;;;;20.00;101322.00;;;;2057387;28;20199;-66
2022/03/08 00:25:17;;;;;;;6.35;5.75;;;;;20.00;101318.00;;;;2059692;28;20586;-65
2022/03/08 00:26:17;;;;;;;7.23;6.53;;;;;20.00;101325.00;;;;2059800;28;20212;-65
2022/03/08 00:27:17;;;;;;;6.43;5.83;;;;;20.00;101319.00;;;;2059664;28;20809;-66
2022/03/08 00:28:18;;;;;;;6.10;5.27;;;;;20.00;101320.00;;;;2060887;28;20722;-65
2022/03/08 00:29:18;;;;;;;6.50;5.43;;;;;20.00;101319.00;;;;2060882;28;20261;-65
2022/03/08 00:30:23;;;;;;;7.10;6.50;;;;;20.00;101316.00;;;;2060465;28;20215;-66
2022/03/08 00:31:24;;;;;;;6.97;6.30;;;;;20.00;101308.00;;;;2060093;28;20268;-65
2022/03/08 00:32:24;;;;;;;6.60;6.00;;;;;20.00;101319.00;;;;2060801;28;20262;-65
2022/03/08 00:33:24;;;;;;;6.27;5.70;;;;;20.00;101314.00;;;;2063588;28;20230;-65
2022/03/08 00:34:25;;;;;;;6.60;6.00;;;;;20.00;101315.00;;;;2059751;28;20678;-65
2022/03/08 00:35:25;;;;;;;5.63;5.13;;;;;20.00;101311.00;;;;2062388;28;20290;-65
2022/03/08 00:36:26;;;;;;;6.10;5.50;;;;;20.00;101301.00;;;;2060690;28;20215;-65
2022/03/08 00:37:26;;;;;;;6.30;5.70;;;;;20.00;101308.00;;;;2060495;28;20211;-65
2022/03/08 00:38:26;;;;;;;6.13;5.53;;;;;20.00;101306.00;;;;2059182;28;20690;-65
2022/03/08 00:39:26;;;;;;;6.20;5.60;;;;;20.00;101304.00;;;;2057197;28;20704;-65
2022/03/08 00:40:27;;;;;;;6.10;5.50;;;;;20.00;101308.00;;;;2059463;28;20211;-65
2022/03/08 00:41:27;;;;;;;6.00;5.40;;;;;19.90;101306.00;;;;2059609;28;20222;-65
2022/03/08 00:42:27;;;;;;;6.43;5.80;;;;;20.00;101306.00;;;;2060138;28;20239;-66
2022/03/08 00:43:28;;;;;;;6.50;5.83;;;;;20.00;101305.00;;;;2060352;28;20222;-65
2022/03/08 00:44:28;;;;;;;6.27;5.67;;;;;19.90;101311.00;;;;2059901;28;20211;-66
2022/03/08 00:45:28;;;;;;;5.90;5.40;;;;;19.90;101312.00;;;;2060125;28;20245;-65
2022/03/08 00:46:29;;;;;;;5.33;4.93;;;;;19.90;101305.00;;;;2059820;28;20222;-65
2022/03/08 00:47:29;;;;;;;6.20;5.60;;;;;19.90;101305.00;;;;2059308;28;20227;-65
2022/03/08 00:48:29;;;;;;;5.83;5.20;;;;;19.90;101303.00;;;;2059946;28;20223;-65
2022/03/08 00:49:30;;;;;;;5.70;5.20;;;;;19.90;101304.00;;;;2059653;28;20223;-65
2022/03/08 00:50:30;;;;;;;6.03;5.43;;;;;19.90;101297.00;;;;2059452;28;20211;-65
2022/03/08 00:51:30;;;;;;;5.47;4.97;;;;;19.90;101297.00;;;;2060688;28;20215;-65
2022/03/08 00:52:31;;;;;;;5.60;5.07;;;;;19.90;101304.00;;;;2060597;28;20705;-65
2022/03/08 00:53:31;;;;;;;5.67;5.10;;;;;19.90;101297.00;;;;2061901;28;20829;-66
2022/03/08 00:54:31;;;;;;;5.70;5.20;;;;;19.90;101298.00;;;;2059919;28;20686;-66
2022/03/08 00:55:32;;;;;;;5.97;5.47;;;;;19.90;101300.00;;;;2059062;28;20227;-66
2022/03/08 00:56:32;;;;;;;5.80;5.30;;;;;19.90;101299.00;;;;2059280;28;20667;-65
2022/03/08 00:57:33;;;;;;;6.20;5.60;;;;;19.90;101293.00;;;;2060666;28;20633;-66
2022/03/08 00:58:35;;;;;;;5.50;5.00;;;;;19.90;101289.00;;;;2060482;28;20234;-65
2022/03/08 00:59:35;;;;;;;6.28;5.68;;;;;19.90;101284.00;;;;2060106;28;20211;-65
2022/03/08 01:00:36;;;;;;;6.07;5.03;;;;;19.90;101287.00;;;;2059766;28;20568;-65
2022/03/08 01:01:37;;;;;;;5.50;5.00;;;;;19.90;101275.00;;;;2059771;28;20284;-66
2022/03/08 01:02:38;;;;;;;6.05;5.35;;;;;19.90;101278.00;;;;2059136;28;20877;-66
2022/03/08 01:03:38;;;;;;;5.50;5.00;;;;;19.90;101275.00;;;;2059664;28;20226;-65
2022/03/08 01:04:38;;;;;;;5.20;4.70;;;;;19.90;101273.00;;;;2059983;28;20223;-65
2022/03/08 01:05:38;;;;;;;5.00;4.50;;;;;19.80;101279.00;;;;2059929;28;20223;-66
2022/03/08 01:06:42;;;;;;;6.10;4.77;;;;;19.80;101275.00;;;;2059976;28;20218;-66
2022/03/08 01:07:42;;;;;;;5.93;4.97;;;;;19.90;101271.00;;;;2058812;28;20272;-65
2022/03/08 01:08:43;;;;;;;5.97;5.37;;;;;19.80;101273.00;;;;2060700;28;20682;-65
2022/03/08 01:09:43;;;;;;;5.80;4.70;;;;;19.80;101268.00;;;;2057663;28;20219;-66
2022/03/08 01:10:43;;;;;;;5.27;4.87;;;;;19.80;101263.00;;;;2059673;28;20211;-66
2022/03/08 01:11:44;;;;;;;5.47;4.97;;;;;19.80;101269.00;;;;2059603;28;20251;-66
2022/03/08 01:12:44;;;;;;;5.40;4.70;;;;;19.80;101272.00;;;;2058797;28;20218;-65
2022/03/08 01:13:44;;;;;;;5.10;4.70;;;;;19.80;101266.00;;;;2058910;28;20222;-65
2022/03/08 01:14:45;;;;;;;4.93;4.43;;;;;19.80;101268.00;;;;2055608;28;20251;-65
2022/03/08 01:15:45;;;;;;;5.90;5.30;;;;;19.80;101274.00;;;;2059204;28;20211;-66
2022/03/08 01:16:45;;;;;;;5.53;4.90;;;;;19.80;101282.00;;;;2059778;28;20215;-66
2022/03/08 01:17:47;;;;;;;5.80;5.20;;;;;19.80;101279.00;;;;2060239;28;20576;-65
2022/03/08 01:18:48;;;;;;;5.65;5.05;;;;;19.60;101285.00;;;;2060234;28;20882;-65
2022/03/08 01:19:48;;;;;;;4.70;4.30;;;;;19.80;101276.00;;;;2054845;28;20214;-65
2022/03/08 01:20:48;;;;;;;5.37;4.60;;;;;19.80;101287.00;;;;2059729;28;20295;-65
2022/03/08 01:21:49;;;;;;;4.80;4.40;;;;;19.70;101275.00;;;;2059776;28;20223;-66
2022/03/08 01:22:49;;;;;;;6.70;4.73;;;;;19.70;101272.00;;;;2059709;28;20645;-66
2022/03/08 01:23:49;;;;;;;5.33;4.87;;;;;19.70;101266.00;;;;2059279;28;20240;-66
2022/03/08 01:24:50;;;;;;;6.00;4.53;;;;;19.70;101269.00;;;;2059711;28;20214;-65
2022/03/08 01:25:50;;;;;;;5.07;4.57;;;;;19.70;101273.00;;;;2059565;28;20254;-65
2022/03/08 01:26:50;;;;;;;4.80;4.40;;;;;19.70;101274.00;;;;2059655;28;20303;-65
2022/03/08 01:27:51;;;;;;;5.00;4.27;;;;;19.70;101273.00;;;;2059719;28;20244;-65
2022/03/08 01:28:51;;;;;;;6.30;4.50;;;;;19.70;101270.00;;;;2059765;28;20214;-65
2022/03/08 01:29:52;;;;;;;4.53;4.13;;;;;19.70;101274.00;;;;2058049;28;20212;-65
2022/03/08 01:30:52;;;;;;;5.40;4.80;;;;;19.70;101269.00;;;;2060194;28;20559;-66
2022/03/08 01:31:52;;;;;;;5.40;4.90;;;;;19.70;101263.00;;;;2060370;28;20200;-65
2022/03/08 01:32:53;;;;;;;5.20;4.57;;;;;19.70;101262.00;;;;2060080;28;20216;-65
2022/03/08 01:33:57;;;;;;;4.63;4.17;;;;;19.60;101256.00;;;;2059637;28;20294;-66
2022/03/08 01:34:57;;;;;;;4.85;4.45;;;;;19.70;101256.00;;;;2057337;28;20242;-65
2022/03/08 01:35:57;;;;;;;5.40;4.87;;;;;19.70;101259.00;;;;2059266;28;20584;-65
2022/03/08 01:36:57;;;;;;;7.40;4.63;;;;;19.60;101254.00;;;;2063156;28;21040;-65
2022/03/08 01:37:58;;;;;;;4.83;4.40;;;;;19.70;101248.00;;;;2063050;28;20686;-65
2022/03/08 01:38:58;;;;;;;4.77;4.23;;;;;19.70;101255.00;;;;2051565;28;20762;-65
2022/03/08 01:39:59;;;;;;;5.40;4.80;;;;;19.70;101258.00;;;;2049881;28;20751;-65
2022/03/08 01:40:59;;;;;;;4.43;4.03;;;;;19.60;101257.00;;;;2058237;28;20683;-65
2022/03/08 01:42:06;;;;;;;5.50;4.40;;;;;19.60;101261.00;;;;2059142;28;20706;-65
2022/03/08 01:43:06;;;;;;;5.18;4.65;;;;;19.70;101259.00;;;;2058867;28;20200;-65
2022/03/08 01:44:10;;;;;;;5.57;5.07;;;;;19.60;101259.00;;;;2059035;28;20223;-66
2022/03/08 01:45:10;;;;;;;4.40;4.10;;;;;19.60;101261.00;;;;2057234;28;20219;-65
2022/03/08 01:46:12;;;;;;;4.80;4.20;;;;;19.60;101259.00;;;;2058763;28;20245;-65
2022/03/08 01:47:16;;;;;;;5.15;4.30;;;;;19.60;101259.00;;;;2051172;28;20219;-66
2022/03/08 01:48:16;;;;;;;4.93;4.53;;;;;19.60;101255.00;;;;2058438;28;20214;-66
2022/03/08 01:49:17;;;;;;;4.50;4.10;;;;;19.60;101253.00;;;;2059425;28;20253;-65
2022/03/08 01:50:17;;;;;;;5.10;4.60;;;;;19.50;101252.00;;;;2057832;28;20211;-66
2022/03/08 01:51:17;;;;;;;4.13;3.73;;;;;19.70;101237.00;;;;2058342;28;20262;-65
2022/03/08 01:52:20;;;;;;;5.20;4.73;;;;;19.60;101251.00;;;;2058191;28;20214;-66
2022/03/08 01:53:20;;;;;;;4.03;3.72;;;;;19.60;101245.00;;;;2047978;28;20227;-65
2022/03/08 01:54:20;;;;;;;4.37;3.97;;;;;19.60;101247.00;;;;2057591;28;20225;-64
2022/03/08 01:55:20;;;;;;;4.57;4.20;;;;;19.60;101243.00;;;;2058914;28;20231;-65
2022/03/08 01:56:21;;;;;;;5.43;4.53;;;;;19.60;101248.00;;;;2059367;28;20232;-65
2022/03/08 01:57:25;;;;;;;4.83;4.30;;;;;19.60;101248.00;;;;2058837;28;20218;-65
2022/03/08 01:58:25;;;;;;;5.15;4.75;;;;;19.60;101246.00;;;;2058452;28;20212;-65
2022/03/08 01:59:25;;;;;;;4.50;4.10;;;;;19.60;101240.00;;;;2059542;28;20699;-65
2022/03/08 02:00:27;;;;;;;4.40;4.00;;;;;19.60;101242.00;;;;2060353;28;20290;-66
2022/03/08 02:01:28;;;;;;;4.22;3.90;;;;;19.60;101236.00;;;;2059889;28;20216;-65
2022/03/08 02:02:28;;;;;;;4.30;3.90;;;;;19.60;101232.00;;;;2060321;28;20238;-66
2022/03/08 02:03:28;;;;;;;4.30;3.90;;;;;19.50;101227.00;;;;2059929;28;20219;-65
2022/03/08 02:04:29;;;;;;;4.33;3.97;;;;;19.60;101229.00;;;;2058489;28;20229;-65
2022/03/08 02:05:29;;;;;;;4.83;4.43;;;;;19.50;101232.00;;;;2058602;28;20223;-65
2022/03/08 02:06:29;;;;;;;4.20;3.80;;;;;19.50;101218.00;;;;2058395;28;20315;-66
2022/03/08 02:07:30;;;;;;;4.30;3.97;;;;;19.60;101217.00;;;;2057347;28;20718;-65
2022/03/08 02:08:30;;;;;;;4.30;3.77;;;;;19.60;101223.00;;;;2058887;28;20218;-63
2022/03/08 02:09:30;;;;;;;4.80;4.33;;;;;19.60;101214.00;;;;2058615;28;21036;-64
2022/03/08 02:10:31;;;;;;;4.60;4.20;;;;;19.60;101227.00;;;;2058768;28;20736;-65
2022/03/08 02:11:31;;;;;;;4.43;4.03;;;;;19.50;101214.00;;;;2059638;28;20682;-66
2022/03/08 02:12:31;;;;;;;4.60;4.20;;;;;19.50;101216.00;;;;2052244;28;20223;-64
2022/03/08 02:13:32;;;;;;;4.07;3.67;;;;;19.50;101223.00;;;;2050362;28;20220;-65
2022/03/08 02:14:32;;;;;;;4.43;4.10;;;;;19.50;101219.00;;;;2066069;28;20324;-65
2022/03/08 02:15:32;;;;;;;4.20;3.90;;;;;19.50;101228.00;;;;2065795;28;20235;-66
2022/03/08 02:16:33;;;;;;;4.67;4.27;;;;;19.50;101218.00;;;;2058675;28;20216;-66
2022/03/08 02:17:33;;;;;;;4.37;3.97;;;;;19.50;101225.00;;;;2059713;28;20215;-65
2022/03/08 02:18:33;;;;;;;4.13;3.73;;;;;19.50;101217.00;;;;2059759;28;20226;-65
2022/03/08 02:19:34;;;;;;;4.70;3.83;;;;;19.50;101222.00;;;;2055751;28;20242;-65
2022/03/08 02:20:34;;;;;;;4.20;3.80;;;;;19.50;101227.00;;;;2059980;28;20237;-65
2022/03/08 02:21:35;;;;;;;4.10;3.70;;;;;19.50;101221.00;;;;2059087;28;20219;-65
2022/03/08 02:22:35;;;;;;;4.13;3.73;;;;;19.50;101222.00;;;;2059263;28;20211;-65
2022/03/08 02:23:36;;;;;;;4.40;4.00;;;;;19.50;101226.00;;;;2059343;28;20211;-65
2022/03/08 02:24:36;;;;;;;4.97;4.57;;;;;19.50;101223.00;;;;2048683;28;20208;-66
2022/03/08 02:25:36;;;;;;;4.90;3.70;;;;;19.50;101221.00;;;;2051210;28;20786;-66
2022/03/08 02:26:37;;;;;;;4.00;3.60;;;;;19.40;101224.00;;;;2059891;28;20298;-65
2022/03/08 02:27:42;;;;;;;4.20;3.67;;;;;19.40;101214.00;;;;2060109;28;20211;-66
2022/03/08 02:28:42;;;;;;;4.75;4.00;;;;;19.50;101223.00;;;;2059628;28;20634;-66
2022/03/08 02:29:42;;;;;;;4.10;3.80;;;;;19.40;101222.00;;;;2058895;28;20225;-66
2022/03/08 02:30:42;;;;;;;4.60;4.20;;;;;19.40;101222.00;;;;2050545;28;20215;-65
2022/03/08 02:31:43;;;;;;;3.60;3.33;;;;;19.40;101221.00;;;;2050351;28;20288;-65
2022/03/08 02:32:43;;;;;;;4.40;4.00;;;;;19.40;101219.00;;;;2059165;28;20239;-66
2022/03/08 02:33:44;;;;;;;4.90;4.47;;;;;19.40;101212.00;;;;2059913;28;20223;-65
2022/03/08 02:34:44;;;;;;;4.23;3.83;;;;;19.40;101215.00;;;;2057070;28;20215;-66
2022/03/08 02:35:45;;;;;;;4.53;3.80;;;;;19.40;101214.00;;;;2059233;28;20255;-65
2022/03/08 02:37:04;;;;;;;4.07;3.70;;;;;19.40;101214.00;;;;2059834;28;20236;-65
2022/03/08 02:38:05;;;;;;;4.43;4.13;;;;;19.40;101218.00;;;;2061516;28;20213;-65
2022/03/08 02:39:06;;;;;;;4.40;4.00;;;;;19.40;101217.00;;;;2054607;28;20585;-65
2022/03/08 02:40:08;;;;;;;4.53;4.13;;;;;19.40;101211.00;;;;2058626;28;20450;-66
2022/03/08 02:41:08;;;;;;;4.20;3.90;;;;;19.40;101223.00;;;;2059121;28;20217;-66
2022/03/08 02:42:09;;;;;;;4.57;4.17;;;;;19.40;101213.00;;;;2059138;28;20215;-65
2022/03/08 02:43:10;;;;;;;4.17;3.77;;;;;19.40;101220.00;;;;2059145;28;20226;-65
2022/03/08 02:44:10;;;;;;;4.40;4.00;;;;;19.40;101215.00;;;;2059727;28;20267;-65
2022/03/08 02:45:11;;;;;;;4.40;4.00;;;;;19.40;101215.00;;;;2058304;28;20292;-65
2022/03/08 02:46:11;;;;;;;4.63;3.78;;;;;19.40;101209.00;;;;2058991;28;20214;-65
2022/03/08 02:47:12;;;;;;;3.80;3.50;;;;;19.40;101211.00;;;;2058110;28;20211;-65
2022/03/08 02:48:12;;;;;;;4.20;3.90;;;;;19.40;101203.00;;;;2058423;28;20207;-65
2022/03/08 02:49:12;;;;;;;4.20;3.63;;;;;19.40;101217.00;;;;2058655;28;20241;-66
2022/03/08 02:50:14;;;;;;;4.10;3.80;;;;;19.40;101205.00;;;;2052120;28;20219;-66
2022/03/08 02:51:14;;;;;;;3.90;3.60;;;;;19.40;101206.00;;;;2066595;28;20214;-66
2022/03/08 02:52:14;;;;;;;4.60;4.20;;;;;19.40;101210.00;;;;2061692;28;20234;-66
2022/03/08 02:53:15;;;;;;;4.53;4.13;;;;;19.40;101212.00;;;;2061367;28;20207;-66
2022/03/08 02:54:15;;;;;;;3.80;3.50;;;;;19.40;101213.00;;;;2058858;28;20218;-65
2022/03/08 02:55:15;;;;;;;4.20;3.77;;;;;19.40;101209.00;;;;2056626;28;20325;-66
2022/03/08 02:56:18;;;;;;;4.20;3.80;;;;;19.30;101220.00;;;;2058351;28;20210;-65
2022/03/08 02:57:18;;;;;;;5.13;4.53;;;;;19.30;101220.00;;;;2058576;28;20277;-66
2022/03/08 02:58:18;;;;;;;3.80;3.50;;;;;19.40;101212.00;;;;2058703;28;20211;-65
2022/03/08 02:59:20;;;;;;;4.20;3.90;;;;;19.40;101216.00;;;;2059092;28;20212;-66
2022/03/08 03:00:21;;;;;;;4.35;3.95;;;;;19.30;101214.00;;;;2057052;28;20234;-65
2022/03/08 03:01:21;;;;;;;4.40;4.00;;;;;19.30;101212.00;;;;2055431;28;20230;-65
2022/03/08 03:02:21;;;;;;;3.77;3.47;;;;;19.30;101207.00;;;;2066868;28;20210;-66
2022/03/08 03:03:22;;;;;;;3.80;3.50;;;;;19.30;101215.00;;;;2060589;28;20207;-66
2022/03/08 03:04:22;;;;;;;4.13;3.83;;;;;19.30;101214.00;;;;2058574;28;20302;-65
2022/03/08 03:05:22;;;;;;;4.53;4.13;;;;;19.30;101223.00;;;;2058067;28;20211;-65
2022/03/08 03:06:23;;;;;;;4.17;3.87;;;;;19.30;101211.00;;;;2057846;28;20218;-65
2022/03/08 03:07:24;;;;;;;3.63;3.33;;;;;19.30;101221.00;;;;2058401;28;20220;-65
2022/03/08 03:08:24;;;;;;;4.22;3.88;;;;;19.40;101217.00;;;;2060665;28;20386;-66
2022/03/08 03:09:24;;;;;;;4.47;3.77;;;;;19.30;101222.00;;;;2059503;28;20690;-65
2022/03/08 03:10:25;;;;;;;3.63;3.33;;;;;19.30;101217.00;;;;2059837;28;20721;-65
2022/03/08 03:11:25;;;;;;;3.77;3.47;;;;;19.30;101215.00;;;;2059811;28;20219;-65
2022/03/08 03:12:26;;;;;;;4.10;3.70;;;;;19.30;101206.00;;;;2060183;28;20496;-65
2022/03/08 03:13:26;;;;;;;4.27;3.90;;;;;19.30;101205.00;;;;2059051;28;20237;-65
2022/03/08 03:14:26;;;;;;;4.10;3.70;;;;;19.30;101202.00;;;;2058983;28;20567;-65
2022/03/08 03:15:28;;;;;;;4.40;4.00;;;;;19.30;101204.00;;;;2057901;28;20600;-65
2022/03/08 03:16:28;;;;;;;3.92;3.63;;;;;19.30;101202.00;;;;2059567;28;20247;-65
2022/03/08 03:17:28;;;;;;;3.80;3.50;;;;;19.30;101208.00;;;;2058817;28;20664;-66
2022/03/08 03:18:29;;;;;;;3.83;3.53;;;;;19.20;101208.00;;;;2059943;28;20215;-65
2022/03/08 03:19:29;;;;;;;4.87;4.40;;;;;19.20;101203.00;;;;2060514;28;20274;-65
2022/03/08 03:20:29;;;;;;;3.53;3.23;;;;;19.20;101205.00;;;;2058648;28;20218;-65
2022/03/08 03:21:30;;;;;;;4.70;4.20;;;;;19.20;101207.00;;;;2060582;28;20234;-65
2022/03/08 03:22:30;;;;;;;4.13;3.83;;;;;19.30;101204.00;;;;2060720;28;20582;-65
2022/03/08 03:23:30;;;;;;;4.10;3.80;;;;;19.30;101199.00;;;;2060659;28;20585;-65
2022/03/08 03:24:31;;;;;;;4.13;3.73;;;;;19.30;101197.00;;;;2060852;28;20714;-66
2022/03/08 03:25:31;;;;;;;3.90;3.60;;;;;19.30;101189.00;;;;2060668;28;20671;-65
2022/03/08 03:26:31;;;;;;;4.10;3.80;;;;;19.20;101197.00;;;;2059932;28;20753;-66
2022/03/08 03:27:32;;;;;;;3.60;3.40;;;;;19.20;101197.00;;;;2059399;28;20218;-65
2022/03/08 03:28:32;;;;;;;4.10;3.80;;;;;19.20;101190.00;;;;2060984;28;20246;-65
2022/03/08 03:29:32;;;;;;;3.60;3.30;;;;;19.20;101179.00;;;;2059987;28;20218;-65
2022/03/08 03:30:32;;;;;;;4.20;3.80;;;;;19.20;101189.00;;;;2059404;28;20226;-66
2022/03/08 03:31:33;;;;;;;4.30;3.90;;;;;19.20;101182.00;;;;2059027;28;20276;-65
2022/03/08 03:32:33;;;;;;;3.90;3.60;;;;;19.20;101189.00;;;;2059859;28;20215;-65
2022/03/08 03:33:34;;;;;;;3.93;3.63;;;;;19.20;101182.00;;;;2060859;28;20215;-66
2022/03/08 03:34:34;;;;;;;3.97;3.67;;;;;19.20;101181.00;;;;2061311;28;20236;-65
2022/03/08 03:35:34;;;;;;;3.67;3.37;;;;;19.20;101165.00;;;;2060981;28;20242;-66
2022/03/08 03:36:35;;;;;;;4.10;3.80;;;;;19.20;101187.00;;;;2060552;28;20245;-66
2022/03/08 03:37:36;;;;;;;4.10;3.70;;;;;19.20;101182.00;;;;2060227;28;20599;-66
2022/03/08 03:38:36;;;;;;;4.00;3.70;;;;;19.20;101182.00;;;;2060534;28;20215;-65
2022/03/08 03:39:36;;;;;;;4.20;3.63;;;;;19.20;101184.00;;;;2059990;28;20630;-65
2022/03/08 03:40:37;;;;;;;3.87;3.47;;;;;19.20;101179.00;;;;2058206;28;20655;-65
2022/03/08 03:41:37;;;;;;;4.10;3.80;;;;;19.20;101176.00;;;;2060698;28;20219;-66
2022/03/08 03:42:38;;;;;;;3.90;3.60;;;;;19.20;101180.00;;;;2061435;28;20289;-65
2022/03/08 03:43:38;;;;;;;3.80;3.50;;;;;19.20;101182.00;;;;2061353;28;20219;-65
2022/03/08 03:44:38;;;;;;;3.50;3.20;;;;;19.20;101172.00;;;;2060608;28;20253;-65
2022/03/08 03:45:39;;;;;;;3.97;3.57;;;;;19.20;101183.00;;;;2059907;28;20214;-65
2022/03/08 03:46:39;;;;;;;4.40;4.00;;;;;19.20;101183.00;;;;2059633;28;20268;-66
2022/03/08 03:47:40;;;;;;;4.10;3.80;;;;;19.20;101180.00;;;;2059845;28;20700;-65
2022/03/08 03:48:40;;;;;;;4.30;3.90;;;;;19.10;101184.00;;;;2059612;28;20227;-65
2022/03/08 03:49:40;;;;;;;3.90;3.60;;;;;19.10;101175.00;;;;2059720;28;20219;-66
2022/03/08 03:50:41;;;;;;;3.83;3.53;;;;;19.10;101181.00;;;;2060379;28;20219;-66
2022/03/08 03:51:42;;;;;;;3.95;3.53;;;;;19.10;101184.00;;;;2060185;28;20289;-63
2022/03/08 03:52:42;;;;;;;3.43;3.13;;;;;19.10;101183.00;;;;2060831;28;20703;-64
2022/03/08 03:53:44;;;;;;;3.90;3.60;;;;;19.10;101177.00;;;;2051938;28;20725;-65
2022/03/08 03:54:44;;;;;;;3.65;3.30;;;;;19.10;101178.00;;;;2057571;28;20215;-65
2022/03/08 03:55:44;;;;;;;4.00;3.70;;;;;19.10;101188.00;;;;2051613;28;20216;-66
2022/03/08 03:56:45;;;;;;;3.50;3.20;;;;;19.10;101178.00;;;;2060571;28;20215;-65
2022/03/08 03:57:45;;;;;;;4.13;3.83;;;;;19.10;101177.00;;;;2060694;28;20246;-65
2022/03/08 03:58:45;;;;;;;3.90;3.50;;;;;19.10;101173.00;;;;2059953;28;20221;-65
2022/03/08 03:59:46;;;;;;;3.73;3.43;;;;;19.20;101185.00;;;;2059197;28;20267;-65
2022/03/08 04:00:46;;;;;;;3.77;3.47;;;;;19.10;101187.00;;;;2059682;28;20242;-65
2022/03/08 04:01:46;;;;;;;3.70;3.40;;;;;19.10;101174.00;;;;2059647;28;20219;-65
2022/03/08 04:02:47;;;;;;;3.73;3.43;;;;;19.10;101170.00;;;;2060034;28;20216;-65
2022/03/08 04:03:47;;;;;;;4.10;3.70;;;;;19.10;101166.00;;;;2060513;28;20212;-66
2022/03/08 04:04:47;;;;;;;3.60;3.30;;;;;19.10;101170.00;;;;2058537;28;20215;-65
2022/03/08 04:05:48;;;;;;;4.23;3.23;;;;;19.10;101166.00;;;;2060376;28;20231;-65
2022/03/08 04:06:48;;;;;;;3.77;3.47;;;;;19.10;101167.00;;;;2060452;28;20268;-65
2022/03/08 04:07:48;;;;;;;4.10;3.70;;;;;19.10;101173.00;;;;2059443;28;20223;-65
2022/03/08 04:08:48;;;;;;;4.90;4.37;;;;;19.10;101171.00;;;;2061411;28;20305;-65
2022/03/08 04:09:49;;;;;;;4.17;3.77;;;;;19.10;101167.00;;;;2051481;28;20212;-65
2022/03/08 04:10:50;;;;;;;4.07;3.77;;;;;19.10;101170.00;;;;2068030;28;20221;-66
2022/03/08 04:11:50;;;;;;;4.03;3.73;;;;;19.10;101176.00;;;;2067617;28;20499;-65
2022/03/08 04:12:51;;;;;;;4.07;3.57;;;;;19.10;101173.00;;;;2060764;28;20235;-65
2022/03/08 04:13:51;;;;;;;4.03;3.67;;;;;19.10;101173.00;;;;2060923;28;20214;-65
2022/03/08 04:14:51;;;;;;;4.20;3.80;;;;;19.10;101176.00;;;;2060671;28;20211;-65
2022/03/08 04:15:52;;;;;;;3.80;3.50;;;;;19.10;101171.00;;;;2059804;28;20229;-65
2022/03/08 04:16:53;;;;;;;4.60;3.93;;;;;19.10;101169.00;;;;2059324;28;20227;-65
2022/03/08 04:17:53;;;;;;;4.20;3.90;;;;;19.10;101174.00;;;;2059613;28;20215;-65
2022/03/08 04:18:53;;;;;;;3.87;3.57;;;;;19.10;101167.00;;;;2059909;28;20212;-65
2022/03/08 04:19:54;;;;;;;3.87;3.57;;;;;19.00;101165.00;;;;2060061;28;20219;-66
2022/03/08 04:20:54;;;;;;;3.60;3.33;;;;;19.10;101167.00;;;;2059936;28;20246;-65
2022/03/08 04:21:55;;;;;;;4.20;3.80;;;;;19.00;101168.00;;;;2060317;28;20259;-65
2022/03/08 04:22:55;;;;;;;4.83;4.43;;;;;19.00;101167.00;;;;2060334;28;20214;-65
2022/03/08 04:23:55;;;;;;;3.90;3.60;;;;;19.00;101175.00;;;;2060430;28;20682;-65
2022/03/08 04:24:56;;;;;;;4.37;3.90;;;;;19.00;101173.00;;;;2057554;28;20213;-66
2022/03/08 04:25:56;;;;;;;4.00;3.70;;;;;19.00;101170.00;;;;2059418;28;20265;-65
2022/03/08 04:26:56;;;;;;;4.17;3.80;;;;;19.00;101172.00;;;;2059719;28;20247;-66
2022/03/08 04:27:57;;;;;;;3.77;3.40;;;;;19.00;101164.00;;;;2059026;28;20239;-65
2022/03/08 04:28:57;;;;;;;4.23;3.80;;;;;19.00;101174.00;;;;2058420;28;20238;-65
2022/03/08 04:29:57;;;;;;;3.87;3.43;;;;;19.00;101170.00;;;;2052488;28;20211;-66
2022/03/08 04:30:58;;;;;;;3.73;3.43;;;;;19.00;101170.00;;;;2060449;28;20239;-65
2022/03/08 04:31:58;;;;;;;4.00;3.70;;;;;19.00;101170.00;;;;2059672;28;20214;-65
2022/03/08 04:32:59;;;;;;;4.03;3.63;;;;;19.00;101165.00;;;;2059102;28;20215;-65
2022/03/08 04:33:59;;;;;;;3.70;3.40;;;;;19.00;101171.00;;;;2059752;28;20230;-65
2022/03/08 04:34:59;;;;;;;3.63;3.33;;;;;19.00;101164.00;;;;2059382;28;20223;-65
2022/03/08 04:36:00;;;;;;;3.83;3.53;;;;;19.00;101164.00;;;;2059352;28;20678;-65
2022/03/08 04:37:00;;;;;;;4.13;3.73;;;;;19.00;101161.00;;;;2059710;28;20307;-66
2022/03/08 04:38:00;;;;;;;4.07;3.67;;;;;19.00;101166.00;;;;2060010;28;20223;-66
2022/03/08 04:39:01;;;;;;;4.10;3.70;;;;;19.00;101159.00;;;;2059647;28;20219;-65
2022/03/08 04:40:02;;;;;;;3.73;3.43;;;;;19.00;101164.00;;;;2059656;28;20214;-65
2022/03/08 04:41:05;;;;;;;4.10;3.70;;;;;19.00;101167.00;;;;2059352;28;20706;-65
2022/03/08 04:42:06;;;;;;;4.35;3.95;;;;;19.00;101167.00;;;;2051148;28;20215;-65
2022/03/08 04:43:06;;;;;;;4.60;4.20;;;;;19.00;101165.00;;;;2058806;28;20241;-65
2022/03/08 04:44:06;;;;;;;7.30;4.17;;;;;19.00;101165.00;;;;2059313;28;20207;-65
2022/03/08 04:45:07;;;;;;;5.90;4.30;;;;;19.00;101161.00;;;;2059108;28;20219;-65
2022/03/08 04:46:08;;;;;;;4.00;3.60;;;;;19.00;101166.00;;;;2059639;28;20253;-65
2022/03/08 04:47:08;;;;;;;4.20;3.77;;;;;19.00;101164.00;;;;2058679;28;20533;-65
2022/03/08 04:48:08;;;;;;;3.80;3.50;;;;;19.00;101169.00;;;;2059189;28;20215;-65
2022/03/08 04:49:09;;;;;;;3.70;3.30;;;;;18.90;101158.00;;;;2060422;28;20237;-66
2022/03/08 04:50:11;;;;;;;4.90;4.40;;;;;18.90;101166.00;;;;2057702;28;20215;-65
2022/03/08 04:51:11;;;;;;;5.15;3.58;;;;;19.00;101160.00;;;;2060064;28;20223;-65
2022/03/08 04:52:11;;;;;;;5.40;4.20;;;;;18.90;101159.00;;;;2059738;28;20259;-65
2022/03/08 04:53:12;;;;;;;3.93;3.63;;;;;18.90;101161.00;;;;2063307;28;20207;-65
2022/03/08 04:54:12;;;;;;;3.70;3.40;;;;;19.00;101158.00;;;;2059953;28;20690;-65
2022/03/08 04:55:13;;;;;;;4.13;3.73;;;;;18.90;101165.00;;;;2057072;28;20231;-65
2022/03/08 04:56:13;;;;;;;5.13;3.40;;;;;19.00;101163.00;;;;2059550;28;20308;-65
2022/03/08 04:57:13;;;;;;;3.93;3.53;;;;;18.90;101159.00;;;;2058968;28;20251;-65
2022/03/08 04:58:14;;;;;;;4.13;3.73;;;;;19.00;101162.00;;;;2059962;28;20222;-65
2022/03/08 04:59:14;;;;;;;3.80;3.50;;;;;19.00;101162.00;;;;2060631;28;20231;-65
2022/03/08 05:00:15;;;;;;;4.33;3.70;;;;;19.00;101161.00;;;;2056747;28;20447;-66